KPIT/PIT METAR and TAF weather

Enter ICAO airport designator
Station Type Date Time Source
KPIT METAR 2021/09/23 22:51 UTC NOAA

KPIT 232251Z 22008KT 10SM SCT049 BKN065 14/08 A2992 RMK AO2 SLP138 T01390078


Station Type Date Time Source
KPIT Decoded METAR 2021/09/23 22:51 UTC NOAA

GREATER PITTSBURGH INTERNATIONAL , PA, United States (KPIT) 40-29N 80-14W 357M
Sep 23, 2021 - 06:51 PM EDT / 2021.09.23 2251 UTC
Wind: from the SW (220 degrees) at 9 MPH (8 KT):0
Visibility: 10 mile(s):0
Sky conditions: mostly cloudy
Temperature: 57.0 F (13.9 C)
Dew Point: 46.0 F (7.8 C)
Relative Humidity: 66%
Pressure (altimeter): 29.92 in. Hg (1013 hPa)
ob: KPIT 232251Z 22008KT 10SM SCT049 BKN065 14/08 A2992 RMK AO2 SLP138 T01390078
cycle: 23

Station Type Date Time Source
KPIT TAF 2021/09/23 21:58 UTC NOAA

TAF
AMD KPIT 232058Z 2321/2424 22008KT P6SM BKN040
FM240300 21006KT P6SM SCT040
FM241500 21008G16KT P6SM SCT045

Example: see airport list